createdAt,value
2023-04-02T00:00:03.979Z,1.92
2023-04-02T00:03:15.488Z,1.75
2023-04-02T00:06:33.361Z,1.80
2023-04-02T00:09:38.898Z,1.70
2023-04-02T00:12:58.573Z,2.30
2023-04-02T00:16:01.264Z,1.48
2023-04-02T00:19:05.072Z,1.60
2023-04-02T00:22:09.497Z,1.55
2023-04-02T00:25:13.499Z,1.40
2023-04-02T00:28:17.234Z,3.10
2023-04-02T00:31:20.112Z,1.65
2023-04-02T00:34:37.338Z,1.98
2023-04-02T00:37:42.322Z,1.08
2023-04-02T00:40:44.532Z,1.83
2023-04-02T00:43:50.749Z,1.88
2023-04-02T00:46:52.997Z,0.70
2023-04-02T00:50:18.177Z,1.55
2023-04-02T00:53:30.718Z,0.63
2023-04-02T00:56:45.901Z,0.70
2023-04-02T00:59:51.832Z,1.92
2023-04-02T01:03:13.233Z,1.10
2023-04-02T01:06:17.005Z,0.90
2023-04-02T01:09:34.247Z,1.30
2023-04-02T01:12:43.707Z,1.87
2023-04-02T01:15:58.780Z,1.42
2023-04-02T01:19:19.626Z,1.27
2023-04-02T01:22:41.802Z,1.08
2023-04-02T01:25:46.704Z,1.05
2023-04-02T01:29:06.997Z,1.10
2023-04-02T01:32:11.582Z,0.90
2023-04-02T01:35:13.960Z,0.63
2023-04-02T01:38:27.462Z,1.02
2023-04-02T01:41:32.530Z,0.68
2023-04-02T01:44:41.671Z,0.93
2023-04-02T01:47:44.427Z,1.00
2023-04-02T01:50:49.829Z,1.38
2023-04-02T01:53:52.103Z,1.48
2023-04-02T01:56:55.603Z,0.73
2023-04-02T01:59:59.181Z,1.30
2023-04-02T02:03:01.947Z,1.02
2023-04-02T02:06:06.225Z,1.88
2023-04-02T02:09:12.598Z,0.52
2023-04-02T02:12:15.821Z,1.48
2023-04-02T02:15:20.124Z,0.83
2023-04-02T02:18:25.858Z,0.80
2023-04-02T02:21:28.015Z,0.85
2023-04-02T02:24:31.887Z,1.77
2023-04-02T02:27:49.150Z,0.50
2023-04-02T02:30:59.462Z,3.47
2023-04-02T02:34:08.876Z,1.52
2023-04-02T02:37:24.809Z,1.08
2023-04-02T02:40:30.058Z,0.93
2023-04-02T02:43:33.244Z,1.27
2023-04-02T02:46:37.050Z,1.13
2023-04-02T02:49:47.089Z,1.48
2023-04-02T02:52:57.859Z,1.00
2023-04-02T02:56:01.401Z,1.10
2023-04-02T02:59:12.316Z,1.38
2023-04-02T03:02:17.094Z,1.73
2023-04-02T03:05:25.113Z,1.02
2023-04-02T03:08:37.029Z,1.80
2023-04-02T03:11:44.588Z,1.48
2023-04-02T03:15:11.585Z,3.08
2023-04-02T03:18:14.043Z,3.00
2023-04-02T03:21:19.485Z,1.63
2023-04-02T03:24:24.728Z,2.17
2023-04-02T03:27:32.787Z,1.50
2023-04-02T03:30:35.777Z,1.25
2023-04-02T03:33:40.311Z,2.37
2023-04-02T03:36:57.985Z,2.10
2023-04-02T03:40:00.817Z,2.30
2023-04-02T03:43:12.357Z,1.58
2023-04-02T03:46:24.548Z,1.95
2023-04-02T03:49:41.383Z,3.40
2023-04-02T03:52:43.852Z,2.78
2023-04-02T03:55:48.680Z,1.52
2023-04-02T03:59:03.237Z,1.42
2023-04-02T04:02:16.630Z,1.58
2023-04-02T04:05:29.066Z,1.40
2023-04-02T04:08:38.129Z,2.92
2023-04-02T04:11:45.776Z,2.35
2023-04-02T04:14:55.475Z,2.20
2023-04-02T04:18:04.855Z,2.55
2023-04-02T04:21:31.398Z,2.07
2023-04-02T04:24:45.662Z,2.00
2023-04-02T04:28:05.749Z,2.22
2023-04-02T04:31:24.624Z,2.15
2023-04-02T04:34:38.983Z,2.58
2023-04-02T04:37:43.424Z,1.73
2023-04-02T04:40:55.656Z,1.45
2023-04-02T04:44:01.893Z,1.58
2023-04-02T04:47:04.393Z,1.70
2023-04-02T04:50:06.910Z,1.75
2023-04-02T04:53:15.736Z,1.80
2023-04-02T04:56:21.416Z,2.53
2023-04-02T04:59:32.407Z,2.10
2023-04-02T05:02:41.555Z,1.98
2023-04-02T05:05:44.587Z,2.10
2023-04-02T05:08:49.553Z,1.63
2023-04-02T05:11:58.640Z,1.73
2023-04-02T05:15:07.127Z,2.20
2023-04-02T05:18:39.087Z,1.92
2023-04-02T05:21:42.378Z,1.85
2023-04-02T05:25:04.593Z,2.40
2023-04-02T05:28:13.091Z,2.17
2023-04-02T05:31:20.036Z,2.50
2023-04-02T05:34:29.652Z,2.25
2023-04-02T05:37:33.292Z,2.40
2023-04-02T05:40:39.072Z,1.90
2023-04-02T05:43:45.815Z,2.30
2023-04-02T05:46:54.502Z,2.20
2023-04-02T05:50:10.105Z,1.77
2023-04-02T05:53:35.965Z,2.92
2023-04-02T05:56:42.120Z,2.97
2023-04-02T05:59:47.890Z,4.75
2023-04-02T06:03:00.101Z,2.60
2023-04-02T06:06:06.397Z,2.28
2023-04-02T06:09:15.781Z,1.83
2023-04-02T06:12:28.537Z,2.30
2023-04-02T06:15:31.761Z,3.03
2023-04-02T06:18:38.719Z,2.72
2023-04-02T06:21:45.393Z,2.90
2023-04-02T06:24:51.817Z,2.17
2023-04-02T06:27:55.409Z,2.13
2023-04-02T06:30:59.948Z,2.80
2023-04-02T06:34:07.669Z,1.95
2023-04-02T06:37:22.311Z,2.45
2023-04-02T06:40:31.980Z,2.03
2023-04-02T06:43:46.532Z,1.73
2023-04-02T06:47:27.287Z,2.55
2023-04-02T06:50:49.837Z,2.65
2023-04-02T06:53:53.449Z,1.77
2023-04-02T06:56:56.450Z,2.00
2023-04-02T07:00:25.924Z,2.43
2023-04-02T07:03:30.160Z,1.67
2023-04-02T07:06:35.593Z,3.05
2023-04-02T07:09:37.794Z,2.40
2023-04-02T07:12:41.644Z,1.40
2023-04-02T07:15:48.805Z,3.03
2023-04-02T07:18:51.481Z,1.30
2023-04-02T07:21:54.106Z,3.40
2023-04-02T07:24:58.797Z,2.83
2023-04-02T07:28:01.611Z,2.53
2023-04-02T07:31:04.030Z,2.83
2023-04-02T07:34:07.329Z,3.15
2023-04-02T07:37:12.926Z,2.85
2023-04-02T07:40:20.711Z,2.28
2023-04-02T07:43:23.269Z,2.63
2023-04-02T07:46:26.103Z,1.77
2023-04-02T07:49:28.425Z,2.58
2023-04-02T07:52:31.392Z,2.50
2023-04-02T07:55:33.945Z,2.17
2023-04-02T07:58:36.561Z,2.35
2023-04-02T08:01:38.885Z,2.03
2023-04-02T08:04:41.163Z,3.20
2023-04-02T08:07:43.546Z,3.65
2023-04-02T08:10:45.784Z,3.75
2023-04-02T08:13:48.085Z,3.13
2023-04-02T08:16:52.124Z,2.87
2023-04-02T08:19:56.092Z,2.75
2023-04-02T08:22:58.353Z,3.25
2023-04-02T08:26:00.616Z,2.47
2023-04-02T08:29:03.095Z,2.88
2023-04-02T08:32:05.345Z,2.37
2023-04-02T08:35:08.678Z,3.00
2023-04-02T08:38:14.803Z,2.15
2023-04-02T08:41:21.860Z,2.97
2023-04-02T08:44:36.724Z,2.33
2023-04-02T08:47:41.169Z,3.20
2023-04-02T08:50:44.273Z,2.95
2023-04-02T08:53:46.843Z,4.25
2023-04-02T08:56:55.922Z,2.97
2023-04-02T09:00:01.731Z,2.92
2023-04-02T09:03:08.462Z,3.30
2023-04-02T09:06:15.357Z,2.83
2023-04-02T09:09:20.010Z,2.92
2023-04-02T09:12:27.698Z,3.50
2023-04-02T09:15:34.155Z,2.78
2023-04-02T09:18:36.951Z,3.13
2023-04-02T09:21:42.898Z,3.42
2023-04-02T09:24:45.072Z,2.97
2023-04-02T09:27:49.736Z,3.33
2023-04-02T09:30:58.012Z,2.45
2023-04-02T09:34:00.215Z,3.80
2023-04-02T09:37:17.064Z,3.75
2023-04-02T09:40:22.268Z,3.67
2023-04-02T09:43:26.339Z,3.47
2023-04-02T09:46:28.568Z,3.40
2023-04-02T09:49:38.108Z,3.77
2023-04-02T09:52:40.306Z,3.85
2023-04-02T09:55:42.505Z,3.80
2023-04-02T09:58:45.674Z,3.53
2023-04-02T10:01:57.123Z,3.63
2023-04-02T10:05:03.440Z,3.30
2023-04-02T10:08:15.980Z,2.90
2023-04-02T10:11:21.724Z,3.08
2023-04-02T10:14:30.069Z,3.55
2023-04-02T10:17:36.386Z,3.40
2023-04-02T10:20:50.347Z,2.77
2023-04-02T10:23:53.696Z,3.22
2023-04-02T10:27:17.776Z,4.20
2023-04-02T10:30:30.028Z,4.10
2023-04-02T10:33:43.370Z,3.00
2023-04-02T10:36:46.852Z,3.30
2023-04-02T10:39:56.322Z,3.17
2023-04-02T10:43:17.487Z,3.78
2023-04-02T10:46:38.653Z,4.35
2023-04-02T10:49:59.540Z,3.95
2023-04-02T10:53:07.867Z,3.40
2023-04-02T10:56:12.483Z,3.40
2023-04-02T10:59:19.445Z,3.53
2023-04-02T11:02:28.912Z,3.60
2023-04-02T11:05:46.512Z,4.68
2023-04-02T11:08:50.560Z,3.57
2023-04-02T11:11:54.882Z,3.45
2023-04-02T11:14:57.198Z,3.15
2023-04-02T11:17:59.784Z,3.88
2023-04-02T11:21:03.418Z,3.55
2023-04-02T11:24:05.867Z,3.30
2023-04-02T11:27:37.227Z,4.57
2023-04-02T11:30:39.635Z,4.18
2023-04-02T11:33:44.738Z,3.15
2023-04-02T11:36:51.347Z,4.05
2023-04-02T11:39:55.275Z,3.63
2023-04-02T11:43:17.371Z,3.17
2023-04-02T11:46:19.641Z,3.65
2023-04-02T11:49:38.131Z,2.95
2023-04-02T11:53:03.933Z,3.72
2023-04-02T11:56:06.373Z,3.87
2023-04-02T11:59:15.493Z,2.90
2023-04-02T12:02:17.745Z,2.38
2023-04-02T12:05:32.070Z,2.42
2023-04-02T12:08:54.276Z,1.80
2023-04-02T12:12:00.676Z,2.17
2023-04-02T12:15:04.419Z,1.10
2023-04-02T12:18:12.756Z,1.58
2023-04-02T12:21:16.817Z,2.55
2023-04-02T12:24:23.205Z,2.30
2023-04-02T12:27:27.682Z,2.20
2023-04-02T12:30:30.580Z,2.47
2023-04-02T12:33:37.272Z,2.53
2023-04-02T12:36:40.448Z,2.50
2023-04-02T12:39:51.503Z,2.35
2023-04-02T12:42:53.702Z,3.10
2023-04-02T12:45:57.535Z,2.38
2023-04-02T12:49:05.292Z,2.80
2023-04-02T12:52:09.451Z,3.03
2023-04-02T12:55:19.732Z,2.85
2023-04-02T12:58:25.097Z,3.07
2023-04-02T13:01:28.757Z,2.83
2023-04-02T13:04:31.487Z,3.65
2023-04-02T13:07:33.756Z,2.45
2023-04-02T13:10:36.613Z,3.58
2023-04-02T13:13:40.266Z,2.87
2023-04-02T13:16:42.524Z,2.33
2023-04-02T13:19:44.711Z,2.13
2023-04-02T13:22:46.983Z,2.47
2023-04-02T13:25:49.584Z,3.20
2023-04-02T13:28:56.524Z,3.87
2023-04-02T13:32:00.385Z,2.25
2023-04-02T13:35:02.626Z,3.15
2023-04-02T13:38:06.149Z,3.20
2023-04-02T13:41:20.046Z,2.53
2023-04-02T13:44:23.905Z,2.67
2023-04-02T13:47:26.212Z,2.80
2023-04-02T13:50:29.530Z,3.13
2023-04-02T13:53:32.776Z,2.05
2023-04-02T13:56:35.080Z,1.90
2023-04-02T13:59:37.557Z,2.67
2023-04-02T14:02:46.375Z,2.22
2023-04-02T14:05:52.016Z,2.25
2023-04-02T14:09:12.907Z,1.17
2023-04-02T14:12:15.087Z,1.95
2023-04-02T14:15:28.571Z,1.43
2023-04-02T14:18:36.696Z,2.70
2023-04-02T14:22:11.511Z,1.55
2023-04-02T14:25:20.142Z,3.10
2023-04-02T14:28:42.743Z,1.70
2023-04-02T14:31:55.563Z,1.47
2023-04-02T14:35:10.419Z,2.22
2023-04-02T14:38:12.751Z,1.50
2023-04-02T14:41:38.398Z,1.98
2023-04-02T14:44:48.857Z,2.38
2023-04-02T14:47:54.554Z,1.43
2023-04-02T14:51:01.641Z,2.20
2023-04-02T14:54:22.771Z,1.58
2023-04-02T14:57:48.903Z,1.08
2023-04-02T15:01:15.333Z,2.75
2023-04-02T15:04:23.269Z,1.40
2023-04-02T15:07:28.922Z,1.38
2023-04-02T15:11:00.095Z,2.05
2023-04-02T15:14:19.403Z,1.35
2023-04-02T15:17:21.768Z,1.65
2023-04-02T15:20:24.538Z,1.53
2023-04-02T15:23:29.084Z,2.03
2023-04-02T15:26:31.465Z,2.33
2023-04-02T15:29:56.320Z,1.77
2023-04-02T15:33:18.621Z,2.83
2023-04-02T15:36:32.888Z,3.87
2023-04-02T15:39:38.393Z,2.55
2023-04-02T15:42:45.860Z,3.65
2023-04-02T15:45:51.424Z,1.25
2023-04-02T15:48:53.961Z,1.73
2023-04-02T15:52:01.816Z,2.57
2023-04-02T15:55:25.369Z,1.45
2023-04-02T15:58:30.735Z,1.95
2023-04-02T16:01:39.229Z,2.08
2023-04-02T16:05:00.366Z,1.77
2023-04-02T16:08:18.085Z,1.90
2023-04-02T16:11:21.142Z,1.80
2023-04-02T16:14:31.432Z,1.85
2023-04-02T16:17:37.108Z,2.05
2023-04-02T16:20:42.587Z,2.67
2023-04-02T16:23:44.830Z,2.27
2023-04-02T16:27:05.934Z,2.42
2023-04-02T16:30:11.298Z,3.28
2023-04-02T16:33:21.523Z,2.88
2023-04-02T16:36:36.083Z,4.00
2023-04-02T16:39:57.077Z,3.37
2023-04-02T16:42:59.568Z,4.38
2023-04-02T16:46:05.075Z,3.80
2023-04-02T16:49:13.366Z,4.88
2023-04-02T16:52:21.822Z,3.15
2023-04-02T16:55:41.060Z,5.23
2023-04-02T16:59:02.510Z,5.03
2023-04-02T17:02:14.148Z,4.60
2023-04-02T17:05:16.623Z,4.97
2023-04-02T17:08:26.759Z,8.23
2023-04-02T17:11:36.646Z,5.57
2023-04-02T17:14:42.294Z,4.70
2023-04-02T17:17:44.988Z,5.30
2023-04-02T17:20:48.544Z,4.25
2023-04-02T17:23:56.207Z,5.18
2023-04-02T17:27:00.707Z,5.10
2023-04-02T17:30:26.226Z,5.32
2023-04-02T17:33:28.726Z,5.95
2023-04-02T17:36:41.642Z,4.75
2023-04-02T17:39:53.155Z,4.97
2023-04-02T17:43:01.518Z,5.40
2023-04-02T17:46:24.355Z,6.13
2023-04-02T17:49:33.404Z,5.85
2023-04-02T17:52:36.272Z,6.53
2023-04-02T17:55:40.706Z,5.63
2023-04-02T17:58:48.879Z,8.20
2023-04-02T18:01:54.558Z,7.80
2023-04-02T18:05:06.699Z,8.70
2023-04-02T18:08:15.885Z,5.40
2023-04-02T18:11:27.746Z,4.35
2023-04-02T18:14:48.828Z,8.03
2023-04-02T18:17:51.275Z,3.85
2023-04-02T18:21:01.378Z,2.42
2023-04-02T18:24:06.731Z,2.30
2023-04-02T18:27:09.091Z,2.10
2023-04-02T18:30:36.474Z,2.67
2023-04-02T18:33:57.691Z,4.07
2023-04-02T18:37:06.141Z,3.83
2023-04-02T18:40:22.154Z,5.07
2023-04-02T18:43:47.327Z,3.80
2023-04-02T18:46:54.390Z,3.90
2023-04-02T18:50:10.996Z,5.43
2023-04-02T18:53:15.412Z,4.30
2023-04-02T18:56:19.805Z,5.13
2023-04-02T18:59:38.293Z,3.47
2023-04-02T19:02:47.271Z,3.80
2023-04-02T19:06:01.256Z,3.28
2023-04-02T19:09:12.062Z,4.13
2023-04-02T19:12:15.909Z,3.95
2023-04-02T19:15:20.292Z,4.55
2023-04-02T19:18:22.580Z,3.67
2023-04-02T19:21:33.500Z,3.70
2023-04-02T19:24:36.453Z,3.75
2023-04-02T19:28:14.671Z,5.40
2023-04-02T19:31:26.543Z,3.65
2023-04-02T19:34:38.577Z,5.33
2023-04-02T19:37:51.592Z,3.47
2023-04-02T19:41:06.247Z,4.20
2023-04-02T19:44:13.429Z,4.03
2023-04-02T19:47:17.290Z,5.57
2023-04-02T19:50:19.752Z,4.73
2023-04-02T19:53:22.201Z,5.43
2023-04-02T19:56:24.632Z,5.35
2023-04-02T19:59:27.116Z,4.15
2023-04-02T20:02:29.614Z,3.85
2023-04-02T20:05:32.161Z,5.43
2023-04-02T20:08:36.314Z,3.75
2023-04-02T20:11:38.719Z,5.22
2023-04-02T20:14:41.295Z,4.82
2023-04-02T20:17:43.627Z,5.63
2023-04-02T20:20:46.799Z,5.77
2023-04-02T20:23:52.676Z,5.18
2023-04-02T20:26:55.176Z,3.97
2023-04-02T20:29:57.548Z,5.00
2023-04-02T20:33:00.018Z,3.80
2023-04-02T20:36:04.448Z,3.77
2023-04-02T20:39:09.164Z,4.93
2023-04-02T20:42:11.717Z,3.45
2023-04-02T20:45:13.989Z,4.38
2023-04-02T20:48:16.805Z,4.45
2023-04-02T20:51:19.059Z,6.10
2023-04-02T20:54:21.597Z,5.50
2023-04-02T20:57:25.540Z,5.65
2023-04-02T21:00:27.886Z,5.55
2023-04-02T21:03:30.123Z,5.10
2023-04-02T21:06:34.084Z,4.77
2023-04-02T21:09:36.301Z,7.43
2023-04-02T21:12:38.481Z,6.47
2023-04-02T21:15:43.085Z,4.38
2023-04-02T21:18:46.164Z,6.18
2023-04-02T21:21:48.346Z,4.00
2023-04-02T21:24:50.672Z,5.53
2023-04-02T21:27:52.940Z,6.85
2023-04-02T21:31:05.662Z,5.18
2023-04-02T21:34:09.283Z,5.75
2023-04-02T21:37:11.689Z,5.10
2023-04-02T21:40:14.038Z,2.30
2023-04-02T21:43:16.183Z,3.03
2023-04-02T21:46:19.485Z,1.30
2023-04-02T21:49:22.749Z,0.77
2023-04-02T21:52:25.276Z,1.20
2023-04-02T21:55:27.585Z,1.10
2023-04-02T21:58:29.807Z,1.13
2023-04-02T22:01:33.926Z,1.30
2023-04-02T22:04:36.142Z,1.80
2023-04-02T22:07:38.292Z,0.60
2023-04-02T22:10:40.512Z,1.95
2023-04-02T22:13:43.624Z,1.13
2023-04-02T22:16:45.885Z,1.38
2023-04-02T22:19:48.100Z,1.33
2023-04-02T22:22:51.065Z,1.33
2023-04-02T22:25:53.758Z,1.33
2023-04-02T22:28:56.308Z,1.45
2023-04-02T22:31:58.480Z,0.28
2023-04-02T22:35:00.937Z,0.70
2023-04-02T22:38:03.127Z,0.60
2023-04-02T22:41:08.515Z,1.65
2023-04-02T22:44:14.275Z,0.65
2023-04-02T22:47:17.277Z,1.48
2023-04-02T22:50:19.706Z,0.77
2023-04-02T22:53:22.007Z,1.40
2023-04-02T22:56:26.770Z,2.33
2023-04-02T22:59:29.313Z,1.98
2023-04-02T23:02:31.654Z,1.55
2023-04-02T23:05:33.839Z,3.33
2023-04-02T23:08:36.799Z,2.40
2023-04-02T23:11:38.975Z,2.65
2023-04-02T23:14:41.215Z,2.53
2023-04-02T23:17:43.579Z,4.18
2023-04-02T23:20:45.778Z,3.03
2023-04-02T23:23:49.087Z,2.77
2023-04-02T23:26:51.310Z,3.53
2023-04-02T23:29:53.527Z,3.78
2023-04-02T23:32:55.801Z,3.47
2023-04-02T23:35:58.630Z,2.70
2023-04-02T23:39:02.364Z,3.87
2023-04-02T23:42:04.605Z,4.32
2023-04-02T23:45:07.253Z,4.30
2023-04-02T23:48:09.431Z,2.78
2023-04-02T23:51:11.687Z,3.92
2023-04-02T23:54:14.309Z,6.83
2023-04-02T23:57:17.289Z,3.15
